createdAt,value
2022-12-09T00:00:19.350Z,1.20
2022-12-09T00:10:20.836Z,0.96
2022-12-09T00:20:22.281Z,0.84
2022-12-09T00:30:23.536Z,0.62
2022-12-09T00:40:24.974Z,0.39
2022-12-09T00:50:26.351Z,0.13
2022-12-09T01:00:27.710Z,-0.08
2022-12-09T01:10:28.961Z,-0.08
2022-12-09T01:20:30.515Z,-0.46
2022-12-09T01:30:32.086Z,-0.50
2022-12-09T01:40:33.363Z,-0.65
2022-12-09T01:50:34.959Z,-0.69
2022-12-09T02:00:36.495Z,-0.84
2022-12-09T02:10:37.851Z,-0.88
2022-12-09T02:20:39.111Z,-0.95
2022-12-09T02:30:40.455Z,-0.99
2022-12-09T02:40:41.750Z,-1.06
2022-12-09T02:50:43.838Z,-1.16
2022-12-09T03:00:45.196Z,-1.18
2022-12-09T03:10:46.732Z,-1.34
2022-12-09T03:20:48.533Z,-1.43
2022-12-09T03:30:49.943Z,-1.50
2022-12-09T03:40:51.270Z,-1.56
2022-12-09T03:50:52.723Z,-1.55
2022-12-09T04:00:54.263Z,-1.59
2022-12-09T04:10:55.783Z,-1.68
2022-12-09T04:20:57.153Z,-1.76
2022-12-09T04:30:58.795Z,-1.75
2022-12-09T04:41:00.219Z,-1.70
2022-12-09T04:51:01.582Z,-1.69
2022-12-09T05:01:03.304Z,-1.62
2022-12-09T05:11:04.911Z,-1.64
2022-12-09T05:21:06.476Z,-1.43
2022-12-09T05:31:08.025Z,-1.53
2022-12-09T05:41:09.403Z,-1.64
2022-12-09T05:51:11.083Z,-1.59
2022-12-09T06:01:12.559Z,-1.56
2022-12-09T06:11:14.476Z,-1.53
2022-12-09T06:21:15.861Z,-1.58
2022-12-09T06:31:17.375Z,-1.53
2022-12-09T06:41:19.334Z,-1.57
2022-12-09T06:51:20.945Z,-1.56
2022-12-09T07:01:22.747Z,-1.48
2022-12-09T07:11:24.800Z,-1.45
2022-12-09T07:21:26.458Z,-1.42
2022-12-09T07:31:28.572Z,-1.39
2022-12-09T07:41:30.361Z,-1.30
2022-12-09T07:51:32.026Z,-1.13
2022-12-09T08:01:33.773Z,-1.09
2022-12-09T08:11:35.208Z,-1.01
2022-12-09T08:21:36.836Z,-0.89
2022-12-09T08:31:41.605Z,-0.79
2022-12-09T08:41:43.859Z,-0.60
2022-12-09T08:51:45.531Z,-0.39
2022-12-09T09:01:46.966Z,-0.07
2022-12-09T09:11:48.875Z,0.32
2022-12-09T09:21:50.794Z,0.58
2022-12-09T09:31:54.637Z,0.88
2022-12-09T09:41:56.573Z,1.12
2022-12-09T09:51:58.449Z,1.23
2022-12-09T10:02:00.374Z,0.92
2022-12-09T10:12:02.151Z,0.87
2022-12-09T10:22:03.640Z,0.84
2022-12-09T10:32:05.861Z,0.83
2022-12-09T10:42:31.597Z,0.98
2022-12-09T10:52:36.313Z,1.33
2022-12-09T11:02:37.834Z,1.44
2022-12-09T11:12:41.747Z,1.72
2022-12-09T11:22:44.176Z,1.92
2022-12-09T11:32:45.555Z,1.99
2022-12-09T11:42:46.907Z,2.04
2022-12-09T11:52:48.183Z,2.00
2022-12-09T12:02:49.665Z,2.11
2022-12-09T12:12:50.982Z,2.07
2022-12-09T12:22:54.885Z,2.23
2022-12-09T12:43:36.510Z,2.39
2022-12-09T12:53:37.925Z,2.51
2022-12-09T13:03:39.155Z,2.51
2022-12-09T13:13:40.419Z,2.50
2022-12-09T13:23:41.666Z,2.64
2022-12-09T13:33:43.001Z,2.85
2022-12-09T13:43:44.351Z,2.73
2022-12-09T13:53:46.707Z,2.91
2022-12-09T14:03:48.251Z,2.86
2022-12-09T14:13:49.489Z,2.80
2022-12-09T14:23:50.732Z,2.92
2022-12-09T14:33:51.985Z,2.95
2022-12-09T14:43:53.283Z,2.87
2022-12-09T14:53:54.619Z,2.85
2022-12-09T15:03:56.046Z,2.88
2022-12-09T15:14:17.345Z,2.86
2022-12-09T15:24:18.624Z,2.83
2022-12-09T15:34:26.142Z,2.68
2022-12-09T15:44:27.757Z,2.37
2022-12-09T15:54:29.062Z,2.34
2022-12-09T16:04:30.453Z,2.31
2022-12-09T16:14:31.796Z,2.18
2022-12-09T16:24:57.843Z,2.15
2022-12-09T16:34:54.254Z,2.18
2022-12-09T16:44:55.515Z,2.14
2022-12-09T16:54:56.778Z,2.17
2022-12-09T17:04:58.056Z,2.11
2022-12-09T17:14:59.379Z,2.16
2022-12-09T17:25:00.637Z,2.09
2022-12-09T17:35:01.903Z,2.05
2022-12-09T17:45:03.346Z,2.04
2022-12-09T17:55:06.585Z,1.95
2022-12-09T18:05:09.120Z,2.00
2022-12-09T18:15:10.410Z,2.05
2022-12-09T18:25:11.674Z,2.05
2022-12-09T18:35:12.926Z,2.06
2022-12-09T18:45:14.225Z,2.07
2022-12-09T18:55:15.486Z,2.07
2022-12-09T19:05:16.749Z,1.95
2022-12-09T19:15:18.001Z,1.91
2022-12-09T19:25:19.297Z,1.90
2022-12-09T19:35:20.548Z,1.94
2022-12-09T19:45:21.813Z,1.90
2022-12-09T19:55:23.131Z,1.89
2022-12-09T20:05:24.381Z,1.97
2022-12-09T20:15:25.616Z,1.95
2022-12-09T20:25:26.911Z,1.85
2022-12-09T20:35:28.221Z,1.77
2022-12-09T20:45:29.501Z,1.84
2022-12-09T20:55:30.803Z,1.82
2022-12-09T21:05:32.115Z,1.83
2022-12-09T21:15:33.419Z,1.76
2022-12-09T21:25:34.679Z,1.62
2022-12-09T21:35:36.536Z,1.60
2022-12-09T21:45:37.863Z,1.49
2022-12-09T21:55:39.523Z,1.34
2022-12-09T22:05:40.781Z,1.49
2022-12-09T22:15:42.031Z,1.28
2022-12-09T22:25:52.380Z,1.38
2022-12-09T22:35:53.624Z,1.25
2022-12-09T22:45:54.914Z,1.19
2022-12-09T22:55:56.207Z,1.21
2022-12-09T23:05:57.452Z,1.14
2022-12-09T23:15:58.803Z,1.18
2022-12-09T23:26:00.122Z,1.17
2022-12-09T23:36:01.368Z,1.21
2022-12-09T23:46:02.711Z,1.12
2022-12-09T23:56:04.056Z,1.17
